Flight Track Log - Related Links

Times and Time Zones

All times are in EST time to prevent confusion due to time zone crossing. See the JBU1105 flight status page for this flight to view local times or setup timezone preferences in your user account.

Time Position Orientation Groundspeed Altitude Reporting Facility
EST Latitude Longitude Course Direction KTS MPH feet Rate Location/Type
Sun 10:09:38 PM 40.6000 -73.8000 74° East 175 201 2,200  Level New York TRACON
Sun 10:11:38 PM 40.6333 -73.6500 74° East 300 345 6,700 2,450 Climbing New York TRACON
Sun 10:13:38 PM 40.7833 -73.5833 19° North 340 391 12,000 2,350 Climbing New York TRACON
Sun 10:15:38 PM 40.9500 -73.7000 332° Northwest 365 420 16,100 1,700 Climbing New York TRACON
Sun 10:16:38 PM 41.0167 -73.8000 311° West 349 402 17,100 293 Climbing New York TRACON
Sun 10:19:03 PM 41.0522 -74.0975 279° West 346 398 17,100 -29 Level New York Center
Sun 10:20:03 PM 41.0678 -74.2086 281° West 346 398 17,000 400 Descending New York Center
Sun 10:21:03 PM 41.0889 -74.3417 282° West 341 392 17,900 1,250 Climbing New York Center
Sun 10:22:03 PM 41.1022 -74.4497 279° West 341 392 19,500 1,800 Climbing New York Center
Sun 10:23:03 PM 41.1208 -74.5831 281° West 343 395 21,500 2,250 Climbing New York Center
Sun 10:24:03 PM 41.1517 -74.7281 286° West 357 411 24,000 1,750 Climbing New York Center
Sun 10:25:03 PM 41.2036 -74.8497 300° West 368 423 25,000 1,200 Climbing New York Center
Sun 10:26:03 PM 41.2519 -74.9572 301° West 381 438 26,400 1,350 Climbing New York Center
Sun 10:27:03 PM 41.3036 -75.0847 298° West 387 445 27,700 1,300 Climbing New York Center
Sun 10:28:03 PM 41.3575 -75.2072 300° West 387 445 29,000 1,200 Climbing New York Center
Sun 10:29:03 PM 41.4150 -75.3381 300° West 392 451 30,100 1,400 Climbing New York Center
Sun 10:30:03 PM 41.4683 -75.4636 300° West 392 451 31,800 1,600 Climbing New York Center
Sun 10:31:03 PM 41.5069 -75.5936 292° West 380 437 33,300 1,300 Climbing New York Center
Sun 10:32:03 PM 41.5433 -75.7183 291° West 368 423 34,400 800 Climbing New York Center
Sun 10:33:03 PM 41.5797 -75.8431 291° West 362 417 34,900 550 Climbing New York Center
Sun 10:34:03 PM 41.6178 -75.9736 291° West 367 422 35,500 550 Climbing New York Center
Sun 10:35:03 PM 41.6536 -76.1069 290° West 372 428 36,000 250 Climbing New York Center
Sun 10:36:03 PM 41.6911 -76.2403 291° West 382 440 36,000  Level New York Center
Sun 10:37:50 PM 41.7589 -76.4869 290° West 389 448 36,000  Level Cleveland Center
Sun 10:38:51 PM 41.7978 -76.6236 291° West 392 451 36,000  Level Cleveland Center
Sun 10:39:52 PM 41.8358 -76.7614 290° West 394 453 36,000  Level Cleveland Center
Sun 10:40:53 PM 41.8733 -76.8997 290° West 396 456 36,000  Level Cleveland Center
Sun 10:41:55 PM 41.9117 -77.0372 291° West 394 453 36,000  Level Cleveland Center
Sun 10:42:55 PM 41.9500 -77.1792 290° West 400 460 36,000  Level Cleveland Center
Sun 10:43:57 PM 41.9869 -77.3214 289° West 405 466 36,000  Level Cleveland Center
Sun 10:44:58 PM 42.0225 -77.4539 290° West 382 440 36,000  Level Cleveland Center
Sun 10:45:59 PM 42.0661 -77.6139 290° West 379 436 36,000  Level Cleveland Center
Sun 10:47:00 PM 42.1025 -77.7475 290° West 379 436 36,000  Level Cleveland Center
Sun 10:48:01 PM 42.1375 -77.8806 290° West 378 435 36,000  Level Cleveland Center
Sun 10:49:02 PM 42.1736 -78.0133 290° West 377 434 36,000  Level Cleveland Center
Sun 10:50:03 PM 42.2081 -78.1447 290° West 373 429 36,000  Level Cleveland Center
Sun 10:51:04 PM 42.2439 -78.2792 290° West 378 435 36,000  Level Cleveland Center
Sun 10:52:05 PM 42.2778 -78.4128 289° West 377 434 36,000  Level Cleveland Center
Sun 10:53:06 PM 42.3103 -78.5464 288° West 376 433 36,000  Level Cleveland Center
Sun 10:54:07 PM 42.3431 -78.6786 289° West 372 428 36,000  Level Cleveland Center
Sun 10:55:08 PM 42.3758 -78.8111 289° West 373 429 36,000  Level Cleveland Center
Sun 10:56:09 PM 42.4025 -78.9578 284° West 385 443 36,000  Level Cleveland Center
Sun 10:57:10 PM 42.4108 -79.0931 275° West 369 425 36,000  Level Cleveland Center
Sun 10:58:11 PM 42.4200 -79.2275 275° West 365 420 36,000  Level Cleveland Center
Sun 10:59:12 PM 42.4289 -79.3619 275° West 363 418 36,000  Level Cleveland Center
Sun 11:00:13 PM 42.4375 -79.4969 275° West 365 420 36,000  Level Cleveland Center
Sun 11:01:14 PM 42.4469 -79.6619 274° West 369 425 36,000  Level Cleveland Center
Sun 11:02:15 PM 42.4550 -79.7944 275° West 361 415 36,000  Level Cleveland Center
Sun 11:03:16 PM 42.4639 -79.9311 275° West 362 417 36,000  Level Cleveland Center
Sun 11:04:17 PM 42.4697 -80.0675 273° West 367 422 36,000  Level Cleveland Center
Sun 11:05:18 PM 42.4789 -80.2094 275° West 374 430 36,000  Level Cleveland Center
Sun 11:06:19 PM 42.4869 -80.3528 274° West 379 436 36,000  Level Cleveland Center
Sun 11:07:20 PM 42.4939 -80.4961 274° West 379 436 36,000  Level Cleveland Center
Sun 11:08:20 PM 42.5017 -80.6411 274° West 384 442 36,000  Level Cleveland Center
Sun 11:09:21 PM 42.5089 -80.7881 274° West 388 447 36,000  Level Cleveland Center
Sun 11:10:22 PM 42.5122 -80.9344 272° West 389 448 36,000  Level Cleveland Center
Sun 11:11:23 PM 42.5167 -81.0792 272° West 384 442 36,000  Level Cleveland Center
Sun 11:12:24 PM 42.5200 -81.2267 272° West 389 448 36,000  Level Cleveland Center
Sun 11:13:25 PM 42.5342 -81.3750 277° West 394 453 36,000  Level Cleveland Center
Sun 11:14:26 PM 42.5503 -81.5189 279° West 387 445 36,000  Level Cleveland Center
Sun 11:15:27 PM 42.5669 -81.6683 279° West 396 456 36,000  Level Cleveland Center
Sun 11:16:28 PM 42.5836 -81.8178 279° West 396 456 36,000  Level Cleveland Center
Sun 11:17:29 PM 42.5992 -81.9664 278° West 399 459 36,000  Level Cleveland Center
Sun 11:18:30 PM 42.6164 -82.1108 279° West 393 452 36,000  Level Cleveland Center
Sun 11:19:31 PM 42.6339 -82.2842 278° West 388 447 36,000  Level Cleveland Center
Sun 11:20:32 PM 42.6486 -82.4256 278° West 383 441 36,000  Level Cleveland Center
Sun 11:21:32 PM 42.6642 -82.5647 279° West 377 434 36,000  Level Cleveland Center
Sun 11:22:33 PM 42.6786 -82.7050 278° West 377 434 36,000  Level Cleveland Center
Sun 11:23:34 PM 42.6922 -82.8433 278° West 374 430 36,000  Level Cleveland Center
Sun 11:24:35 PM 42.7064 -82.9836 278° West 376 433 36,000  Level Cleveland Center
Sun 11:25:36 PM 42.7228 -83.1239 279° West 378 435 36,000  Level Cleveland Center
Sun 11:26:37 PM 42.7378 -83.2656 278° West 381 438 36,000  Level Cleveland Center
Sun 11:27:37 PM 42.7553 -83.4072 280° West 383 441 36,000  Level Cleveland Center
Sun 11:28:38 PM 42.7714 -83.5506 279° West 387 445 36,000  Level Cleveland Center
Sun 11:29:39 PM 42.7881 -83.6931 279° West 385 443 36,000 -443 Level Cleveland Center
Sun 11:30:40 PM 42.8081 -83.8656 279° West 387 445 35,100 -942 Descending Cleveland Center
Sun 11:31:40 PM 42.8231 -84.0114 278° West 390 449 34,100 -992 Descending Cleveland Center
Sun 11:32:41 PM 42.8386 -84.1542 278° West 385 443 33,100 -934 Descending Cleveland Center
Sun 11:33:42 PM 42.8544 -84.2964 279° West 382 440 32,200 -541 Descending Cleveland Center
Sun 11:34:43 PM 42.8667 -84.4231 278° West 383 441 32,000 -99 Descending Cleveland Center
Sun 11:35:43 PM 42.8825 -84.5656 279° West 381 438 32,000  Level Cleveland Center
Sun 11:36:44 PM 42.8686 -84.7375 264° West 381 438 32,000  Level Cleveland Center
Sun 11:37:45 PM 42.8528 -84.8814 262° West 383 441 32,000  Level Cleveland Center
Sun 11:38:46 PM 42.8389 -85.0233 262° West 380 437 32,000  Level Cleveland Center
Sun 11:39:46 PM 42.8236 -85.1647 262° West 378 435 32,000  Level Cleveland Center
Sun 11:40:47 PM 42.8067 -85.3056 261° West 377 434 32,000  Level Cleveland Center
Sun 11:41:48 PM 42.7925 -85.4461 262° West 374 430 32,000  Level Cleveland Center
Sun 11:42:49 PM 42.7711 -85.5831 258° West 370 426 32,000 -50 Level Cleveland Center
Sun 11:43:49 PM 42.7458 -85.7192 256° West 370 426 31,900 -645 Descending Cleveland Center
Sun 11:44:50 PM 42.7225 -85.8547 257° West 367 422 30,700 -1,623 Descending Cleveland Center
Sun 11:45:51 PM 42.6975 -85.9903 256° West 367 422 28,600 -2,132 Descending Cleveland Center
Sun 11:46:51 PM 42.6733 -86.1258 256° West 367 422 26,400 -2,083 Descending Cleveland Center
Sun 11:47:52 PM 42.6481 -86.2558 255° West 357 411 24,400 -1,967 Descending Cleveland Center
Sun 11:48:53 PM 42.6247 -86.3847 256° West 352 405 22,400 -2,028 Descending Cleveland Center
Sun 11:50:14 PM 42.5894 -86.5667 255° West 355 409 19,600 -2,128 Descending Chicago Center
Sun 11:51:14 PM 42.5678 -86.6850 256° West 339 390 17,400 -1,983 Descending Chicago Center
Sun 11:52:15 PM 42.5389 -86.8067 252° West 329 379 15,600 -1,820 Descending Chicago Center
Sun 11:53:16 PM 42.5069 -86.9236 250° West 331 381 13,700 -1,672 Descending Chicago Center
Sun 11:54:17 PM 42.4758 -87.0372 250° West 324 373 12,200 -1,525 Descending Chicago Center
Sun 11:55:18 PM 42.4475 -87.1367 249° West 287 330 10,600 -1,279 Descending Chicago Center
Sun 11:56:19 PM 42.4228 -87.2281 250° West 261 300 9,600 -787 Descending Chicago Center
Sun 11:57:20 PM 42.3983 -87.3142 249° West 248 285 9,000 -298 Descending Chicago Center
Sun 11:58:20 PM 42.3767 -87.3969 251° West 210 242 9,000  Level Chicago Center
Sun 11:59:21 PM 42.3567 -87.4681 249° West 204 235 9,000 -344 Level Chicago Center
Mon 12:00:22 AM 42.3361 -87.5389 249° West 204 235 8,300 -443 Descending Chicago Center
Mon 12:01:23 AM 42.2708 -87.5311 175° South 236 272 8,100 -98 Descending Chicago Center
Mon 12:02:24 AM 42.2111 -87.5094 165° South 225 259 8,100 -645 Level Chicago Center
Mon 12:03:24 AM 42.1561 -87.4728 154° Southeast 226 260 6,800 -1,041 Descending Chicago Center
Mon 12:04:25 AM 42.1031 -87.4139 141° Southeast 243 280 6,000 -492 Descending Chicago Center
Mon 12:05:26 AM 42.0439 -87.3892 163° South 232 267 5,800 -836 Descending Chicago Center
Mon 12:06:27 AM 41.9875 -87.3828 175° South 221 254 4,300 -893 Descending Chicago Center
Mon 12:07:27 AM 41.9828 -87.4358 263° West 173 199 4,000 -149 Descending Chicago Center
Mon 12:08:28 AM 41.9828 -87.4883 270° West 152 175 4,000  Level Chicago Center
Mon 12:09:29 AM 41.9831 -87.5403 270° West 144 166 4,000  Level Chicago Center
Mon 12:10:29 AM 41.9839 -87.6039 271° West 143 165 4,000  Level Chicago Center
Mon 12:11:30 AM 41.9833 -87.6581 269° West 144 166 4,000 -295 Level Chicago Center
Mon 12:12:31 AM 41.9836 -87.7092 270° West 142 163 3,400 -689 Descending Chicago Center
Mon 12:13:32 AM 41.9836 -87.7606 270° West 140 161 2,600 -744 Descending Chicago Center
Mon 12:14:32 AM 41.9844 -87.8111 271° West 139 160 1,900 -595 Descending Chicago Center
Mon 12:15:33 AM 41.9842 -87.8583 270° West 132 152 1,400 -492 Descending Chicago Center
Mon 12:17:00 AM 41.9667 -87.9000 206° Southwest  Level FlightAware Approximate

Login

Don't have an account? Register now (free) for customized features, flight alerts, and more!